createdAt,value
2018-08-13T00:00:56.009Z,8.47
2018-08-13T00:03:24.186Z,13.77
2018-08-13T00:05:52.358Z,4.27
2018-08-13T00:08:20.668Z,8.13
2018-08-13T00:10:48.858Z,10.83
2018-08-13T00:13:17.031Z,13.90
2018-08-13T00:15:45.205Z,14.30
2018-08-13T00:18:13.657Z,5.93
2018-08-13T00:20:41.829Z,9.70
2018-08-13T00:23:10.108Z,8.13
2018-08-13T00:25:38.288Z,5.77
2018-08-13T00:28:07.993Z,5.13
2018-08-13T00:30:36.372Z,5.33
2018-08-13T00:33:05.236Z,10.27
2018-08-13T00:35:33.412Z,9.00
2018-08-13T00:38:01.596Z,4.53
2018-08-13T00:40:29.761Z,3.93
2018-08-13T00:42:57.934Z,7.00
2018-08-13T00:45:26.113Z,6.03
2018-08-13T00:47:54.290Z,9.70
2018-08-13T00:50:22.469Z,4.40
2018-08-13T00:52:50.697Z,5.10
2018-08-13T00:55:18.860Z,8.40
2018-08-13T00:57:47.032Z,6.03
2018-08-13T01:00:17.754Z,6.37
2018-08-13T01:02:46.336Z,5.87
2018-08-13T01:05:15.504Z,7.93
2018-08-13T01:07:43.688Z,7.37
2018-08-13T01:10:13.549Z,5.93
2018-08-13T01:12:41.904Z,9.83
2018-08-13T01:15:11.922Z,10.17
2018-08-13T01:17:41.528Z,6.83
2018-08-13T01:20:11.552Z,7.47
2018-08-13T01:22:39.728Z,10.77
2018-08-13T01:25:10.041Z,6.43
2018-08-13T01:27:38.308Z,6.80
2018-08-13T01:30:06.981Z,8.23
2018-08-13T01:32:35.150Z,6.80
2018-08-13T01:35:03.320Z,7.30
2018-08-13T01:37:31.494Z,6.43
2018-08-13T01:39:59.660Z,5.47
2018-08-13T01:42:27.831Z,6.17
2018-08-13T01:44:56.001Z,5.63
2018-08-13T01:47:24.177Z,5.47
2018-08-13T01:56:49.444Z,6.87
2018-08-13T01:59:17.621Z,6.87
2018-08-13T02:01:45.812Z,7.03
2018-08-13T02:04:13.992Z,4.70
2018-08-13T02:06:42.161Z,6.07
2018-08-13T02:09:11.390Z,7.30
2018-08-13T02:11:39.593Z,6.30
2018-08-13T02:14:07.952Z,6.40
2018-08-13T02:16:36.147Z,4.47
2018-08-13T02:19:04.348Z,4.50
2018-08-13T02:21:32.677Z,5.70
2018-08-13T02:24:00.860Z,5.40
2018-08-13T02:26:29.037Z,5.73
2018-08-13T02:28:57.220Z,5.60
2018-08-13T02:31:25.405Z,4.70
2018-08-13T02:33:53.722Z,5.87
2018-08-13T02:36:21.910Z,11.23
2018-08-13T02:38:50.106Z,16.33
2018-08-13T02:41:18.279Z,13.03
2018-08-13T02:43:46.453Z,8.77
2018-08-13T02:46:14.658Z,6.90
2018-08-13T02:48:42.833Z,5.17
2018-08-13T02:51:11.013Z,6.17
2018-08-13T02:53:39.197Z,6.33
2018-08-13T02:56:07.395Z,5.50
2018-08-13T02:58:35.572Z,5.17
2018-08-13T03:01:03.744Z,5.60
2018-08-13T03:03:31.925Z,5.87
2018-08-13T03:06:00.106Z,5.23
2018-08-13T03:08:28.285Z,5.70
2018-08-13T03:10:56.460Z,4.83
2018-08-13T03:13:25.146Z,4.97
2018-08-13T03:15:53.318Z,5.30
2018-08-13T03:18:25.753Z,5.20
2018-08-13T03:20:53.925Z,5.23
2018-08-13T03:23:22.098Z,5.17
2018-08-13T03:25:50.285Z,4.83
2018-08-13T03:28:18.471Z,4.33
2018-08-13T03:30:46.657Z,5.60
2018-08-13T03:33:14.838Z,5.73
2018-08-13T03:35:43.021Z,5.20
2018-08-13T03:38:11.201Z,5.03
2018-08-13T03:40:39.376Z,4.70
2018-08-13T03:43:07.577Z,5.10
2018-08-13T03:45:35.748Z,4.53
2018-08-13T03:48:03.993Z,4.70
2018-08-13T03:50:32.173Z,5.00
2018-08-13T03:53:00.353Z,5.37
2018-08-13T03:55:28.537Z,4.60
2018-08-13T03:57:56.717Z,5.57
2018-08-13T04:00:24.893Z,5.10
2018-08-13T04:02:53.073Z,6.30
2018-08-13T04:05:21.263Z,6.33
2018-08-13T04:07:49.436Z,6.87
2018-08-13T04:10:17.625Z,5.47
2018-08-13T04:12:45.834Z,6.03
2018-08-13T04:15:14.986Z,6.43
2018-08-13T04:17:43.855Z,5.47
2018-08-13T04:20:13.057Z,5.17
2018-08-13T04:22:41.336Z,5.23
2018-08-13T04:25:10.341Z,6.23
2018-08-13T04:27:39.333Z,5.50
2018-08-13T04:30:10.777Z,5.40
2018-08-13T04:32:38.973Z,6.00
2018-08-13T04:35:07.140Z,5.53
2018-08-13T04:37:35.321Z,4.87
2018-08-13T04:40:04.157Z,4.67
2018-08-13T04:42:32.357Z,5.50
2018-08-13T04:45:00.540Z,5.37
2018-08-13T04:47:28.712Z,5.93
2018-08-13T04:49:56.894Z,5.90
2018-08-13T04:52:25.081Z,4.37
2018-08-13T04:54:53.256Z,4.67
2018-08-13T04:57:21.432Z,4.70
2018-08-13T04:59:49.607Z,5.23
2018-08-13T05:02:17.784Z,4.87
2018-08-13T05:04:45.964Z,5.43
2018-08-13T05:07:14.151Z,4.70
2018-08-13T05:09:42.313Z,5.20
2018-08-13T05:12:10.509Z,4.37
2018-08-13T05:14:38.701Z,4.67
2018-08-13T05:17:06.909Z,4.70
2018-08-13T05:19:35.202Z,4.03
2018-08-13T05:22:03.384Z,4.43
2018-08-13T05:24:31.557Z,4.50
2018-08-13T05:26:59.729Z,4.13
2018-08-13T05:29:28.202Z,5.23
2018-08-13T05:31:56.385Z,4.27
2018-08-13T05:34:24.565Z,4.43
2018-08-13T05:36:52.744Z,3.83
2018-08-13T05:39:20.916Z,4.67
2018-08-13T05:41:49.104Z,5.20
2018-08-13T05:44:17.277Z,4.50
2018-08-13T05:46:45.456Z,4.47
2018-08-13T05:49:13.636Z,4.00
2018-08-13T05:51:41.813Z,3.87
2018-08-13T05:54:09.988Z,4.00
2018-08-13T05:56:38.164Z,3.73
2018-08-13T05:59:06.385Z,4.10
2018-08-13T06:01:34.564Z,4.87
2018-08-13T06:04:02.746Z,4.97
2018-08-13T06:06:30.916Z,6.50
2018-08-13T06:08:59.104Z,5.07
2018-08-13T06:11:27.418Z,4.70
2018-08-13T06:13:55.474Z,4.23
2018-08-13T06:16:23.653Z,6.67
2018-08-13T06:18:51.841Z,5.60
2018-08-13T06:21:20.021Z,4.33
2018-08-13T06:23:48.184Z,4.57
2018-08-13T06:26:16.420Z,6.13
2018-08-13T06:28:44.616Z,5.70
2018-08-13T06:31:12.785Z,6.20
2018-08-13T06:33:40.956Z,5.10
2018-08-13T06:36:09.137Z,5.33
2018-08-13T06:38:37.315Z,8.30
2018-08-13T06:41:05.543Z,4.60
2018-08-13T06:43:33.781Z,4.23
2018-08-13T06:46:01.960Z,4.30
2018-08-13T06:48:30.137Z,4.00
2018-08-13T06:50:58.317Z,3.80
2018-08-13T06:53:26.497Z,4.57
2018-08-13T06:55:54.673Z,5.03
2018-08-13T06:58:22.853Z,4.57
2018-08-13T07:00:51.214Z,5.30
2018-08-13T07:03:19.340Z,4.30
2018-08-13T07:05:47.522Z,4.50
2018-08-13T07:08:15.717Z,4.17
2018-08-13T07:10:43.888Z,4.20
2018-08-13T07:13:12.106Z,4.50
2018-08-13T07:15:40.350Z,4.20
2018-08-13T07:18:08.497Z,4.53
2018-08-13T07:20:36.672Z,3.90
2018-08-13T07:23:04.851Z,3.80
2018-08-13T07:25:33.033Z,3.80
2018-08-13T07:28:01.286Z,4.13
2018-08-13T07:30:29.411Z,3.90
2018-08-13T07:32:57.585Z,4.00
2018-08-13T07:35:25.749Z,4.73
2018-08-13T07:37:53.926Z,4.47
2018-08-13T07:40:22.096Z,4.80
2018-08-13T07:42:50.268Z,4.27
2018-08-13T07:45:18.433Z,4.27
2018-08-13T07:47:46.605Z,4.03
2018-08-13T07:50:15.313Z,4.17
2018-08-13T07:52:43.614Z,5.23
2018-08-13T07:55:12.574Z,4.20
2018-08-13T07:57:41.153Z,4.33
2018-08-13T08:00:12.265Z,4.03
2018-08-13T08:02:40.461Z,4.20
2018-08-13T08:05:08.644Z,3.97
2018-08-13T08:07:36.832Z,4.37
2018-08-13T08:10:07.529Z,4.03
2018-08-13T08:12:35.722Z,4.00
2018-08-13T08:15:05.960Z,4.27
2018-08-13T08:17:34.133Z,5.30
2018-08-13T08:20:02.296Z,4.50
2018-08-13T08:22:30.476Z,3.97
2018-08-13T08:24:58.666Z,3.73
2018-08-13T08:27:26.849Z,3.57
2018-08-13T08:29:55.033Z,3.80
2018-08-13T08:32:23.204Z,3.30
2018-08-13T08:34:51.434Z,3.73
2018-08-13T08:37:19.564Z,3.60
2018-08-13T08:39:47.749Z,3.73
2018-08-13T08:42:15.916Z,5.00
2018-08-13T08:44:44.084Z,4.10
2018-08-13T08:47:12.263Z,4.90
2018-08-13T08:49:40.433Z,4.47
2018-08-13T08:52:08.614Z,4.30
2018-08-13T08:54:36.789Z,4.70
2018-08-13T08:57:05.185Z,4.23
2018-08-13T08:59:33.361Z,4.30
2018-08-13T09:02:01.553Z,4.37
2018-08-13T09:04:29.740Z,5.30
2018-08-13T09:06:57.920Z,4.47
2018-08-13T09:09:26.096Z,3.23
2018-08-13T09:11:54.284Z,3.60
2018-08-13T09:14:22.465Z,4.07
2018-08-13T09:16:51.684Z,4.33
2018-08-13T09:19:31.381Z,3.87
2018-08-13T09:22:09.721Z,4.50
2018-08-13T09:24:49.316Z,3.30
2018-08-13T09:27:28.984Z,2.93
2018-08-13T09:30:08.569Z,3.00
2018-08-13T09:32:48.388Z,3.23
2018-08-13T09:35:21.944Z,3.70
2018-08-13T09:37:50.121Z,2.80
2018-08-13T09:40:18.289Z,3.20
2018-08-13T09:42:46.469Z,3.37
2018-08-13T09:45:14.647Z,3.40
2018-08-13T09:47:42.812Z,3.47
2018-08-13T09:50:13.297Z,3.07
2018-08-13T09:52:41.984Z,3.10
2018-08-13T09:55:10.213Z,3.63
2018-08-13T09:57:38.385Z,3.00
2018-08-13T10:00:08.589Z,3.90
2018-08-13T10:02:36.760Z,4.07
2018-08-13T10:05:04.968Z,4.03
2018-08-13T10:07:33.153Z,3.87
2018-08-13T10:10:01.331Z,2.93
2018-08-13T10:12:29.500Z,3.53
2018-08-13T10:14:57.680Z,3.87
2018-08-13T10:17:25.877Z,3.40
2018-08-13T10:19:54.048Z,2.93
2018-08-13T10:22:22.260Z,2.97
2018-08-13T10:24:50.451Z,2.90
2018-08-13T10:27:18.613Z,3.20
2018-08-13T10:29:46.801Z,3.50
2018-08-13T10:32:14.986Z,3.27
2018-08-13T10:34:43.145Z,4.07
2018-08-13T10:37:11.313Z,4.63
2018-08-13T10:39:39.495Z,3.80
2018-08-13T10:42:07.741Z,3.50
2018-08-13T10:44:35.921Z,2.93
2018-08-13T10:47:04.097Z,3.73
2018-08-13T10:49:32.327Z,3.40
2018-08-13T10:52:00.503Z,3.03
2018-08-13T10:54:28.672Z,3.27
2018-08-13T10:56:56.853Z,3.40
2018-08-13T10:59:25.029Z,3.10
2018-08-13T11:01:53.216Z,3.30
2018-08-13T11:04:21.403Z,3.00
2018-08-13T11:06:49.585Z,3.67
2018-08-13T11:09:17.768Z,4.73
2018-08-13T11:11:45.949Z,3.47
2018-08-13T11:14:14.132Z,4.70
2018-08-13T11:16:42.305Z,3.20
2018-08-13T11:19:10.505Z,3.27
2018-08-13T11:21:38.699Z,3.40
2018-08-13T11:24:06.881Z,3.00
2018-08-13T11:26:35.056Z,3.37
2018-08-13T11:29:03.232Z,3.30
2018-08-13T11:31:31.453Z,3.27
2018-08-13T11:33:59.625Z,3.50
2018-08-13T11:36:27.800Z,3.57
2018-08-13T11:38:55.974Z,3.00
2018-08-13T11:41:24.153Z,2.90
2018-08-13T11:43:52.320Z,3.20
2018-08-13T11:46:20.660Z,3.10
2018-08-13T11:48:48.798Z,3.00
2018-08-13T11:51:16.965Z,3.10
2018-08-13T11:53:45.143Z,3.30
2018-08-13T11:56:13.326Z,3.03
2018-08-13T11:58:41.498Z,3.43
2018-08-13T12:01:09.755Z,3.40
2018-08-13T12:03:37.856Z,3.23
2018-08-13T12:06:06.105Z,3.30
2018-08-13T12:08:34.337Z,4.10
2018-08-13T12:11:02.470Z,3.57
2018-08-13T12:13:30.644Z,3.70
2018-08-13T12:15:58.812Z,3.27
2018-08-13T12:18:27.002Z,2.73
2018-08-13T12:20:55.173Z,3.07
2018-08-13T12:23:23.369Z,3.37
2018-08-13T12:25:51.545Z,3.27
2018-08-13T12:28:19.720Z,3.20
2018-08-13T12:30:47.905Z,3.40
2018-08-13T12:33:16.100Z,3.27
2018-08-13T12:35:44.314Z,3.47
2018-08-13T12:38:12.494Z,3.30
2018-08-13T12:40:40.679Z,3.40
2018-08-13T12:43:08.861Z,3.57
2018-08-13T12:45:37.065Z,3.37
2018-08-13T12:48:05.749Z,3.50
2018-08-13T12:50:33.919Z,3.23
2018-08-13T12:53:02.101Z,3.43
2018-08-13T12:55:30.288Z,3.30
2018-08-13T12:57:58.457Z,3.20
2018-08-13T13:00:26.633Z,3.67
2018-08-13T13:02:54.809Z,3.77
2018-08-13T13:05:22.986Z,3.57
2018-08-13T13:07:51.181Z,3.50
2018-08-13T13:10:19.357Z,3.33
2018-08-13T13:12:47.529Z,3.63
2018-08-13T13:15:17.541Z,3.30
2018-08-13T13:17:45.732Z,3.60
2018-08-13T13:20:17.050Z,3.50
2018-08-13T13:22:45.478Z,4.00
2018-08-13T13:25:13.751Z,3.30
2018-08-13T13:27:41.930Z,3.53
2018-08-13T13:30:12.749Z,3.50
2018-08-13T13:32:41.125Z,3.63
2018-08-13T13:35:10.620Z,3.70
2018-08-13T13:37:38.796Z,4.03
2018-08-13T13:40:08.770Z,3.50
2018-08-13T13:42:37.413Z,3.83
2018-08-13T13:45:05.957Z,3.50
2018-08-13T13:47:34.269Z,3.67
2018-08-13T13:50:02.449Z,3.87
2018-08-13T13:52:30.632Z,3.77
2018-08-13T13:54:58.816Z,3.60
2018-08-13T13:57:27.014Z,4.00
2018-08-13T14:01:19.655Z,4.03
2018-08-13T14:03:47.862Z,4.00
2018-08-13T14:06:16.051Z,3.87
2018-08-13T14:08:44.209Z,3.10
2018-08-13T14:11:12.385Z,3.03
2018-08-13T14:13:40.574Z,3.83
2018-08-13T14:16:08.757Z,3.20
2018-08-13T14:18:36.978Z,4.53
2018-08-13T14:21:05.209Z,3.50
2018-08-13T14:23:33.421Z,3.53
2018-08-13T14:26:01.609Z,3.50
2018-08-13T14:28:29.788Z,3.90
2018-08-13T14:30:57.976Z,3.20
2018-08-13T14:33:26.145Z,3.37
2018-08-13T14:35:54.312Z,3.20
2018-08-13T14:38:22.501Z,3.50
2018-08-13T14:40:50.711Z,3.03
2018-08-13T14:43:18.882Z,4.03
2018-08-13T14:45:47.061Z,5.00
2018-08-13T14:48:15.265Z,6.33
2018-08-13T14:50:43.449Z,6.67
2018-08-13T14:53:11.628Z,6.47
2018-08-13T14:55:39.796Z,6.70
2018-08-13T14:58:07.973Z,7.10
2018-08-13T15:00:37.562Z,7.10
2018-08-13T15:03:09.829Z,8.60
2018-08-13T15:05:38.346Z,6.43
2018-08-13T15:08:06.510Z,6.47
2018-08-13T15:10:34.693Z,6.40
2018-08-13T15:13:02.913Z,6.90
2018-08-13T15:15:31.053Z,7.23
2018-08-13T15:17:59.224Z,7.43
2018-08-13T15:20:29.745Z,7.37
2018-08-13T15:22:57.920Z,7.33
2018-08-13T15:25:26.328Z,6.93
2018-08-13T15:27:54.585Z,7.70
2018-08-13T15:30:23.236Z,6.93
2018-08-13T15:32:52.522Z,7.37
2018-08-13T15:35:20.812Z,8.10
2018-08-13T15:37:49.295Z,8.30
2018-08-13T15:40:17.673Z,7.77
2018-08-13T15:42:45.856Z,8.50
2018-08-13T15:45:17.333Z,7.73
2018-08-13T15:47:45.985Z,7.87
2018-08-13T15:50:15.801Z,8.60
2018-08-13T15:52:44.289Z,10.40
2018-08-13T15:55:12.677Z,8.67
2018-08-13T15:57:41.557Z,9.20
2018-08-13T16:00:11.852Z,10.07
2018-08-13T16:02:40.029Z,9.63
2018-08-13T16:05:09.265Z,8.43
2018-08-13T16:07:37.451Z,8.60
2018-08-13T16:10:08.037Z,8.37
2018-08-13T16:12:36.436Z,8.20
2018-08-13T16:15:05.412Z,8.30
2018-08-13T16:17:33.716Z,8.40
2018-08-13T16:20:01.928Z,17.00
2018-08-13T16:22:30.115Z,24.53
2018-08-13T16:24:58.289Z,24.47
2018-08-13T16:27:26.468Z,11.00
2018-08-13T16:29:54.652Z,13.87
2018-08-13T16:32:22.838Z,12.20
2018-08-13T16:34:51.008Z,8.57
2018-08-13T16:37:19.193Z,9.13
2018-08-13T16:39:47.417Z,8.10
2018-08-13T16:42:15.593Z,8.67
2018-08-13T16:44:43.769Z,7.37
2018-08-13T16:47:11.949Z,7.10
2018-08-13T16:49:40.130Z,7.77
2018-08-13T16:52:08.313Z,7.63
2018-08-13T16:54:36.750Z,8.10
2018-08-13T16:57:05.511Z,7.40
2018-08-13T16:59:33.694Z,6.87
2018-08-13T17:02:01.861Z,7.23
2018-08-13T17:04:30.045Z,6.60
2018-08-13T17:06:58.216Z,6.23
2018-08-13T17:09:26.402Z,7.00
2018-08-13T17:11:54.577Z,6.47
2018-08-13T17:14:22.954Z,6.53
2018-08-13T17:16:50.945Z,6.93
2018-08-13T17:19:19.121Z,6.00
2018-08-13T17:21:47.321Z,6.10
2018-08-13T17:24:15.563Z,6.30
2018-08-13T17:26:43.940Z,6.43
2018-08-13T17:29:12.113Z,7.53
2018-08-13T17:31:40.314Z,19.17
2018-08-13T17:34:09.593Z,19.20
2018-08-13T17:36:38.181Z,16.83
2018-08-13T17:39:09.626Z,13.97
2018-08-13T17:41:37.985Z,9.10
2018-08-13T17:44:06.157Z,7.17
2018-08-13T17:46:34.342Z,7.80
2018-08-13T17:49:02.512Z,6.80
2018-08-13T17:51:30.676Z,5.90
2018-08-13T17:53:58.852Z,5.20
2018-08-13T17:56:27.045Z,5.30
2018-08-13T17:58:55.209Z,6.23
2018-08-13T18:01:23.383Z,5.27
2018-08-13T18:03:51.993Z,5.10
2018-08-13T18:06:20.164Z,5.43
2018-08-13T18:08:48.341Z,5.07
2018-08-13T18:11:16.536Z,11.53
2018-08-13T18:13:44.704Z,6.23
2018-08-13T18:16:13.256Z,10.90
2018-08-13T18:18:41.479Z,7.63
2018-08-13T18:21:09.674Z,9.47
2018-08-13T18:23:37.856Z,13.20
2018-08-13T18:26:06.025Z,7.90
2018-08-13T18:28:34.281Z,7.80
2018-08-13T18:31:02.457Z,6.07
2018-08-13T18:33:31.053Z,6.73
2018-08-13T18:35:59.220Z,6.43
2018-08-13T18:38:27.397Z,5.63
2018-08-13T18:40:55.582Z,5.97
2018-08-13T18:43:23.764Z,5.33
2018-08-13T18:45:51.956Z,5.97
2018-08-13T18:48:20.137Z,6.07
2018-08-13T18:50:48.308Z,5.93
2018-08-13T18:53:16.488Z,5.70
2018-08-13T18:55:44.660Z,5.30
2018-08-13T18:58:12.833Z,5.83
2018-08-13T19:00:41.029Z,5.50
2018-08-13T19:03:09.205Z,6.20
2018-08-13T19:05:37.401Z,5.40
2018-08-13T19:08:05.925Z,6.00
2018-08-13T19:10:34.101Z,6.33
2018-08-13T19:13:02.270Z,6.10
2018-08-13T19:15:30.457Z,6.93
2018-08-13T19:17:58.655Z,6.37
2018-08-13T19:20:26.820Z,6.73
2018-08-13T19:22:55.019Z,6.47
2018-08-13T19:25:25.148Z,6.27
2018-08-13T19:27:53.329Z,6.60
2018-08-13T19:30:22.521Z,6.63
2018-08-13T19:32:51.205Z,7.00
2018-08-13T19:35:19.576Z,7.10
2018-08-13T19:37:48.064Z,6.93
2018-08-13T19:40:18.375Z,6.77
2018-08-13T19:42:47.452Z,6.93
2018-08-13T19:45:16.589Z,5.90
2018-08-13T19:47:45.075Z,6.37
2018-08-13T19:50:13.630Z,7.40
2018-08-13T19:52:43.056Z,7.03
2018-08-13T19:55:11.641Z,7.43
2018-08-13T19:57:40.230Z,7.47
2018-08-13T20:00:16.798Z,6.33
2018-08-13T20:02:45.293Z,7.47
2018-08-13T20:05:13.465Z,6.70
2018-08-13T20:07:41.999Z,8.10
2018-08-13T20:10:12.267Z,7.00
2018-08-13T20:12:40.493Z,7.43
2018-08-13T20:15:09.121Z,7.00
2018-08-13T20:17:37.659Z,8.83
2018-08-13T20:20:08.585Z,6.10
2018-08-13T20:22:36.769Z,10.50
2018-08-13T20:25:05.522Z,16.53
2018-08-13T20:27:33.889Z,17.03
2018-08-13T20:30:02.116Z,17.23
2018-08-13T20:32:30.296Z,15.37
2018-08-13T20:34:58.477Z,13.07
2018-08-13T20:37:26.673Z,14.27
2018-08-13T20:39:54.856Z,11.97
2018-08-13T20:42:23.029Z,7.63
2018-08-13T20:44:51.217Z,14.17
2018-08-13T20:47:19.400Z,8.27
2018-08-13T20:49:47.581Z,26.77
2018-08-13T20:52:15.756Z,12.47
2018-08-13T20:54:43.940Z,22.73
2018-08-13T20:57:12.121Z,21.13
2018-08-13T20:59:40.309Z,15.43
2018-08-13T21:02:08.487Z,10.40
2018-08-13T21:04:36.673Z,12.47
2018-08-13T21:07:04.965Z,11.53
2018-08-13T21:09:33.157Z,9.07
2018-08-13T21:12:01.339Z,11.73
2018-08-13T21:14:29.526Z,11.17
2018-08-13T21:16:57.701Z,13.40
2018-08-13T21:19:25.881Z,9.60
2018-08-13T21:21:54.062Z,6.90
2018-08-13T21:24:22.244Z,21.67
2018-08-13T21:26:50.440Z,14.20
2018-08-13T21:29:18.616Z,8.70
2018-08-13T21:31:46.805Z,9.80
2018-08-13T21:34:14.992Z,15.73
2018-08-13T21:36:43.173Z,24.47
2018-08-13T21:39:11.987Z,26.13
2018-08-13T21:41:40.673Z,15.43
2018-08-13T21:44:08.954Z,10.57
2018-08-13T21:46:37.224Z,13.83
2018-08-13T21:49:05.509Z,7.60
2018-08-13T21:51:33.688Z,8.77
2018-08-13T21:54:01.886Z,11.30
2018-08-13T21:56:30.157Z,17.50
2018-08-13T21:58:58.344Z,24.83
2018-08-13T22:01:32.042Z,10.17
2018-08-13T22:04:00.225Z,10.80
2018-08-13T22:06:28.408Z,9.03
2018-08-13T22:08:56.589Z,7.90
2018-08-13T22:11:24.781Z,7.90
2018-08-13T22:13:52.985Z,6.90
2018-08-13T22:16:21.143Z,5.30
2018-08-13T22:18:49.312Z,7.90
2018-08-13T22:21:17.494Z,5.07
2018-08-13T22:23:57.029Z,5.13
2018-08-13T22:26:25.336Z,9.67
2018-08-13T22:28:53.517Z,6.13
2018-08-13T22:31:21.807Z,4.57
2018-08-13T22:33:49.972Z,4.67
2018-08-13T22:36:18.173Z,7.60
2018-08-13T22:38:46.357Z,8.53
2018-08-13T22:41:14.542Z,9.97
2018-08-13T22:43:42.717Z,5.77
2018-08-13T22:46:10.912Z,9.00
2018-08-13T22:48:39.104Z,10.13
2018-08-13T22:51:07.283Z,12.60
2018-08-13T22:53:35.467Z,8.83
2018-08-13T22:56:03.649Z,5.37
2018-08-13T22:58:31.935Z,13.83
2018-08-13T23:01:00.120Z,10.33
2018-08-13T23:03:28.285Z,6.87
2018-08-13T23:05:56.471Z,5.60
2018-08-13T23:08:24.684Z,2.80
2018-08-13T23:10:52.833Z,3.27
2018-08-13T23:13:21.036Z,3.90
2018-08-13T23:15:49.213Z,4.03
2018-08-13T23:18:17.385Z,3.00
2018-08-13T23:20:45.557Z,3.60
2018-08-13T23:23:13.744Z,3.10
2018-08-13T23:25:41.913Z,3.13
2018-08-13T23:28:11.109Z,2.97
2018-08-13T23:30:39.309Z,4.20
2018-08-13T23:33:07.860Z,2.80
2018-08-13T23:35:36.094Z,3.53
2018-08-13T23:38:04.416Z,3.00
2018-08-13T23:40:33.365Z,2.87
2018-08-13T23:43:01.644Z,3.23
2018-08-13T23:45:31.224Z,4.10
2018-08-13T23:48:00.425Z,3.43
2018-08-13T23:50:28.913Z,22.53
2018-08-13T23:52:59.325Z,9.73
2018-08-13T23:55:30.277Z,14.03
2018-08-13T23:57:58.863Z,13.87
